createdAt,value
2022-07-25T00:02:47.669Z,5.72
2022-07-25T00:08:09.687Z,5.68
2022-07-25T00:13:30.523Z,5.60
2022-07-25T00:18:51.295Z,6.50
2022-07-25T00:24:12.189Z,5.93
2022-07-25T00:29:33.240Z,5.43
2022-07-25T00:34:54.167Z,5.63
2022-07-25T00:40:17.354Z,5.25
2022-07-25T00:45:38.717Z,5.95
2022-07-25T00:50:59.915Z,5.88
2022-07-25T00:56:20.799Z,5.93
2022-07-25T01:01:42.884Z,6.45
2022-07-25T01:07:03.894Z,5.18
2022-07-25T01:12:24.640Z,6.30
2022-07-25T01:17:45.638Z,5.40
2022-07-25T01:23:06.667Z,6.07
2022-07-25T01:28:28.063Z,5.57
2022-07-25T01:33:49.399Z,5.18
2022-07-25T01:39:10.184Z,5.50
2022-07-25T01:44:31.316Z,5.47
2022-07-25T01:49:52.215Z,5.45
2022-07-25T01:55:13.209Z,5.30
2022-07-25T02:00:34.180Z,5.60
2022-07-25T02:05:55.225Z,5.20
2022-07-25T02:11:17.526Z,5.28
2022-07-25T02:16:38.623Z,5.80
2022-07-25T02:21:59.989Z,5.13
2022-07-25T02:27:21.034Z,5.63
2022-07-25T02:32:41.814Z,5.45
2022-07-25T02:38:02.621Z,5.47
2022-07-25T02:43:23.553Z,5.57
2022-07-25T02:48:44.478Z,4.90
2022-07-25T02:54:05.570Z,5.35
2022-07-25T02:59:32.223Z,5.07
2022-07-25T03:04:53.420Z,5.40
2022-07-25T03:10:14.883Z,5.00
2022-07-25T03:15:35.855Z,6.90
2022-07-25T03:20:56.891Z,5.13
2022-07-25T03:26:17.894Z,5.43
2022-07-25T03:31:38.850Z,5.97
2022-07-25T03:37:00.536Z,5.40
2022-07-25T03:42:26.524Z,5.47
2022-07-25T03:47:47.785Z,6.60
2022-07-25T03:53:09.204Z,5.47
2022-07-25T03:58:31.354Z,6.32
2022-07-25T04:03:52.582Z,5.45
2022-07-25T04:09:14.064Z,5.07
2022-07-25T04:14:35.156Z,5.72
2022-07-25T04:19:56.121Z,5.38
2022-07-25T04:25:18.123Z,5.03
2022-07-25T04:30:39.190Z,5.25
2022-07-25T04:36:00.569Z,5.53
2022-07-25T04:41:21.592Z,5.55
2022-07-25T04:46:42.599Z,5.75
2022-07-25T04:52:03.610Z,7.53
2022-07-25T04:57:24.513Z,7.75
2022-07-25T05:02:45.565Z,8.68
2022-07-25T05:08:06.581Z,7.88
2022-07-25T05:13:27.368Z,8.70
2022-07-25T05:18:48.719Z,7.45
2022-07-25T05:24:09.920Z,8.27
2022-07-25T05:29:31.430Z,8.80
2022-07-25T05:34:52.627Z,6.90
2022-07-25T05:40:14.082Z,7.47
2022-07-25T05:45:35.181Z,6.68
2022-07-25T05:50:56.956Z,7.78
2022-07-25T05:56:17.858Z,6.10
2022-07-25T06:01:38.946Z,7.60
2022-07-25T06:06:59.952Z,7.38
2022-07-25T06:12:20.734Z,6.65
2022-07-25T06:17:45.311Z,6.10
2022-07-25T06:23:06.345Z,6.70
2022-07-25T06:28:27.277Z,6.47
2022-07-25T06:33:48.388Z,6.45
2022-07-25T06:39:09.545Z,5.95
2022-07-25T06:44:34.366Z,5.38
2022-07-25T06:49:55.501Z,5.60
2022-07-25T06:55:16.553Z,5.88
2022-07-25T07:00:37.451Z,5.80
2022-07-25T07:05:58.548Z,6.25
2022-07-25T07:11:19.547Z,5.60
2022-07-25T07:16:41.707Z,4.97
2022-07-25T07:22:02.961Z,4.28
2022-07-25T07:27:24.997Z,4.80
2022-07-25T07:32:46.577Z,4.93
2022-07-25T07:38:07.951Z,4.38
2022-07-25T07:43:32.071Z,4.07
2022-07-25T07:48:53.480Z,4.50
2022-07-25T07:54:33.117Z,4.80
2022-07-25T07:59:54.251Z,3.90
2022-07-25T08:05:25.452Z,4.55
2022-07-25T08:10:47.857Z,3.85
2022-07-25T08:16:08.896Z,4.18
2022-07-25T08:21:30.003Z,4.78
2022-07-25T08:26:50.832Z,4.25
2022-07-25T08:32:11.661Z,4.05
2022-07-25T08:37:32.348Z,3.95
2022-07-25T08:42:55.144Z,4.28
2022-07-25T08:48:20.283Z,4.45
2022-07-25T08:53:41.859Z,4.45
2022-07-25T08:59:10.404Z,4.40
2022-07-25T09:04:33.200Z,4.70
2022-07-25T09:09:54.226Z,3.42
2022-07-25T09:15:23.054Z,4.00
2022-07-25T09:20:46.743Z,4.95
2022-07-25T09:26:07.608Z,3.53
2022-07-25T09:31:32.643Z,3.97
2022-07-25T09:36:54.741Z,3.35
2022-07-25T09:42:23.910Z,3.75
2022-07-25T09:47:52.331Z,4.55
2022-07-25T09:53:13.561Z,4.35
2022-07-25T09:58:34.465Z,4.00
2022-07-25T10:04:15.782Z,3.67
2022-07-25T10:09:46.452Z,3.90
2022-07-25T10:15:12.363Z,3.70
2022-07-25T10:20:33.361Z,3.72
2022-07-25T10:26:05.123Z,4.00
2022-07-25T10:31:30.306Z,3.55
2022-07-25T10:36:54.683Z,3.58
2022-07-25T10:42:17.023Z,3.45
2022-07-25T10:47:41.399Z,4.05
2022-07-25T10:53:07.922Z,3.17
2022-07-25T10:58:41.031Z,3.60
2022-07-25T11:04:03.885Z,3.28
2022-07-25T11:09:28.693Z,3.20
2022-07-25T11:14:49.874Z,3.65
2022-07-25T11:20:11.948Z,4.20
2022-07-25T11:25:32.907Z,3.25
2022-07-25T11:31:02.713Z,3.33
2022-07-25T11:36:24.122Z,3.25
2022-07-25T11:41:44.983Z,4.25
2022-07-25T11:47:07.574Z,3.75
2022-07-25T11:52:35.636Z,3.90
2022-07-25T11:58:00.924Z,4.25
2022-07-25T12:03:22.150Z,3.28
2022-07-25T12:08:43.616Z,3.75
2022-07-25T12:14:05.520Z,3.78
2022-07-25T12:19:26.485Z,3.75
2022-07-25T12:24:47.518Z,3.70
2022-07-25T12:30:08.983Z,3.65
2022-07-25T12:35:30.115Z,4.05
2022-07-25T12:40:51.041Z,3.92
2022-07-25T12:46:12.119Z,5.10
2022-07-25T12:51:33.073Z,5.93
2022-07-25T12:56:54.556Z,5.28
2022-07-25T13:02:15.711Z,5.50
2022-07-25T13:07:37.164Z,4.28
2022-07-25T13:12:58.224Z,5.55
2022-07-25T13:18:19.154Z,5.25
2022-07-25T13:23:40.514Z,4.65
2022-07-25T13:29:02.282Z,5.03
2022-07-25T13:34:23.098Z,4.82
2022-07-25T13:39:44.193Z,4.43
2022-07-25T13:45:06.058Z,5.32
2022-07-25T13:50:27.334Z,4.55
2022-07-25T13:55:48.661Z,5.07
2022-07-25T14:01:09.988Z,4.78
2022-07-25T14:06:31.211Z,4.05
2022-07-25T14:11:52.012Z,4.25
2022-07-25T14:17:12.893Z,4.68
2022-07-25T14:22:34.217Z,5.07
2022-07-25T14:27:55.495Z,4.50
2022-07-25T14:33:16.877Z,3.97
2022-07-25T14:38:37.832Z,4.32
2022-07-25T14:43:59.736Z,4.22
2022-07-25T14:49:20.652Z,3.80
2022-07-25T14:54:41.833Z,3.97
2022-07-25T15:00:04.795Z,3.95
2022-07-25T15:05:25.897Z,3.88
2022-07-25T15:10:47.212Z,4.93
2022-07-25T15:16:08.495Z,3.83
2022-07-25T15:21:29.451Z,3.92
2022-07-25T15:26:50.497Z,4.10
2022-07-25T15:32:11.339Z,4.35
2022-07-25T15:37:32.303Z,3.60
2022-07-25T15:42:53.295Z,4.90
2022-07-25T15:48:15.423Z,4.95
2022-07-25T15:53:36.811Z,4.63
2022-07-25T15:58:57.959Z,4.60
2022-07-25T16:04:19.604Z,5.25
2022-07-25T16:09:40.846Z,4.10
2022-07-25T16:15:02.243Z,4.55
2022-07-25T16:20:25.103Z,4.70
2022-07-25T16:25:46.039Z,4.30
2022-07-25T16:31:07.461Z,5.00
2022-07-25T16:36:29.421Z,4.63
2022-07-25T16:41:50.518Z,4.05
2022-07-25T16:47:12.979Z,4.70
2022-07-25T16:52:34.612Z,4.80
2022-07-25T16:57:55.991Z,4.75
2022-07-25T17:03:17.057Z,4.68
2022-07-25T17:08:38.228Z,4.35
2022-07-25T17:14:01.181Z,3.95
2022-07-25T17:19:22.571Z,4.35
2022-07-25T17:24:43.761Z,4.18
2022-07-25T17:30:05.683Z,4.90
2022-07-25T17:35:26.707Z,4.82
2022-07-25T17:40:47.653Z,5.15
2022-07-25T17:46:11.248Z,4.50
2022-07-25T17:51:32.161Z,4.53
2022-07-25T17:56:53.201Z,4.88
2022-07-25T18:02:14.066Z,4.63
2022-07-25T18:07:34.912Z,4.30
2022-07-25T18:12:56.087Z,5.15
2022-07-25T18:18:20.409Z,4.80
2022-07-25T18:23:42.032Z,5.07
2022-07-25T18:29:02.930Z,5.07
2022-07-25T18:34:24.005Z,4.70
2022-07-25T18:39:44.823Z,4.32
2022-07-25T18:45:06.265Z,5.03
2022-07-25T18:50:27.976Z,4.63
2022-07-25T18:55:48.963Z,4.28
2022-07-25T19:01:10.176Z,4.35
2022-07-25T19:06:31.217Z,4.55
2022-07-25T19:11:52.819Z,4.57
2022-07-25T19:17:15.265Z,4.50
2022-07-25T19:22:36.392Z,4.35
2022-07-25T19:27:57.574Z,5.18
2022-07-25T19:33:18.502Z,4.13
2022-07-25T19:38:39.777Z,5.65
2022-07-25T19:44:00.951Z,5.03
2022-07-25T19:49:22.046Z,5.55
2022-07-25T19:54:43.115Z,5.07
2022-07-25T20:00:05.294Z,5.35
2022-07-25T20:05:32.906Z,5.32
2022-07-25T20:10:54.066Z,5.43
2022-07-25T20:16:15.207Z,6.07
2022-07-25T20:21:37.202Z,5.93
2022-07-25T20:26:58.437Z,5.60
2022-07-25T20:32:19.505Z,4.78
2022-07-25T20:37:40.505Z,4.32
2022-07-25T20:43:04.276Z,4.57
2022-07-25T20:48:25.659Z,4.75
2022-07-25T20:53:51.683Z,4.13
2022-07-25T20:59:14.948Z,5.40
2022-07-25T21:04:36.048Z,4.75
2022-07-25T21:09:56.980Z,4.68
2022-07-25T21:15:18.196Z,5.05
2022-07-25T21:20:39.344Z,4.63
2022-07-25T21:26:00.583Z,4.97
2022-07-25T21:31:23.076Z,4.53
2022-07-25T21:36:44.351Z,5.03
2022-07-25T21:42:05.590Z,5.13
2022-07-25T21:47:26.639Z,5.45
2022-07-25T21:52:47.575Z,4.93
2022-07-25T21:58:08.535Z,4.22
2022-07-25T22:03:29.490Z,4.68
2022-07-25T22:08:50.522Z,5.35
2022-07-25T22:14:11.767Z,5.53
2022-07-25T22:19:33.461Z,5.97
2022-07-25T22:24:54.360Z,5.55
2022-07-25T22:30:19.225Z,5.35
2022-07-25T22:35:40.916Z,5.63
2022-07-25T22:41:01.870Z,5.15
2022-07-25T22:46:22.879Z,4.95
2022-07-25T22:51:43.718Z,5.25
2022-07-25T22:57:04.686Z,5.47
2022-07-25T23:02:25.579Z,5.78
2022-07-25T23:07:46.612Z,5.65
2022-07-25T23:13:07.451Z,5.00
2022-07-25T23:18:28.574Z,5.32
2022-07-25T23:23:49.709Z,5.65
2022-07-25T23:29:11.258Z,6.32
2022-07-25T23:34:32.410Z,5.13
2022-07-25T23:39:53.379Z,5.38
2022-07-25T23:45:14.289Z,4.03
2022-07-25T23:50:35.239Z,5.47
2022-07-25T23:55:56.446Z,4.68
